sensor_id;sensor_type;location;lat;lon;timestamp;P1;durP1;ratioP1;P2;durP2;ratioP2
68509;SDS011;55512;50.102;19.958;2024-03-23T00:52:36;56.90;;;31.10;;
68509;SDS011;55512;50.102;19.958;2024-03-23T00:55:02;53.40;;;29.40;;
68509;SDS011;55512;50.102;19.958;2024-03-23T00:57:27;50.70;;;28.30;;
68509;SDS011;55512;50.102;19.958;2024-03-23T00:59:53;48.80;;;28.10;;
68509;SDS011;55512;50.102;19.958;2024-03-23T01:02:18;53.50;;;29.10;;
68509;SDS011;55512;50.102;19.958;2024-03-23T01:04:43;56.60;;;28.30;;
68509;SDS011;55512;50.102;19.958;2024-03-23T01:07:09;57.70;;;30.90;;
68509;SDS011;55512;50.102;19.958;2024-03-23T01:09:35;54.20;;;30.20;;
68509;SDS011;55512;50.102;19.958;2024-03-23T01:12:00;58.50;;;32.00;;
68509;SDS011;55512;50.102;19.958;2024-03-23T01:14:26;48.90;;;28.90;;
68509;SDS011;55512;50.102;19.958;2024-03-23T01:16:52;48.50;;;28.10;;
68509;SDS011;55512;50.102;19.958;2024-03-23T01:19:17;53.40;;;29.90;;
68509;SDS011;55512;50.102;19.958;2024-03-23T01:21:43;46.70;;;25.90;;
68509;SDS011;55512;50.102;19.958;2024-03-23T01:24:08;47.00;;;27.70;;
68509;SDS011;55512;50.102;19.958;2024-03-23T01:26:35;45.10;;;25.90;;
68509;SDS011;55512;50.102;19.958;2024-03-23T01:29:02;44.40;;;23.40;;
68509;SDS011;55512;50.102;19.958;2024-03-23T01:31:27;48.20;;;26.50;;
68509;SDS011;55512;50.102;19.958;2024-03-23T01:33:53;44.60;;;24.80;;
68509;SDS011;55512;50.102;19.958;2024-03-23T01:36:18;43.80;;;24.40;;
68509;SDS011;55512;50.102;19.958;2024-03-23T01:38:44;46.00;;;25.90;;
68509;SDS011;55512;50.102;19.958;2024-03-23T01:41:10;43.10;;;25.90;;
68509;SDS011;55512;50.102;19.958;2024-03-23T01:43:35;49.20;;;27.20;;
68509;SDS011;55512;50.102;19.958;2024-03-23T01:46:01;49.70;;;27.90;;
68509;SDS011;55512;50.102;19.958;2024-03-23T01:48:26;52.20;;;28.30;;
68509;SDS011;55512;50.102;19.958;2024-03-23T01:50:52;51.30;;;28.10;;
68509;SDS011;55512;50.102;19.958;2024-03-23T01:53:17;51.80;;;27.70;;
68509;SDS011;55512;50.102;19.958;2024-03-23T01:55:44;44.10;;;26.30;;
68509;SDS011;55512;50.102;19.958;2024-03-23T01:58:10;40.80;;;22.40;;
68509;SDS011;55512;50.102;19.958;2024-03-23T02:00:36;43.40;;;24.80;;
68509;SDS011;55512;50.102;19.958;2024-03-23T02:03:02;43.20;;;25.60;;
68509;SDS011;55512;50.102;19.958;2024-03-23T02:05:27;43.30;;;24.70;;
68509;SDS011;55512;50.102;19.958;2024-03-23T02:07:53;43.20;;;24.20;;
68509;SDS011;55512;50.102;19.958;2024-03-23T02:10:18;46.50;;;24.90;;
68509;SDS011;55512;50.102;19.958;2024-03-23T02:12:44;42.50;;;23.00;;
68509;SDS011;55512;50.102;19.958;2024-03-23T02:15:09;40.40;;;23.50;;
68509;SDS011;55512;50.102;19.958;2024-03-23T02:17:35;46.20;;;25.10;;
68509;SDS011;55512;50.102;19.958;2024-03-23T02:20:05;44.60;;;25.20;;
68509;SDS011;55512;50.102;19.958;2024-03-23T02:22:38;43.40;;;25.40;;
68509;SDS011;55512;50.102;19.958;2024-03-23T02:25:05;46.80;;;25.10;;
68509;SDS011;55512;50.102;19.958;2024-03-23T02:27:31;43.10;;;25.20;;
68509;SDS011;55512;50.102;19.958;2024-03-23T02:29:58;41.40;;;24.10;;
68509;SDS011;55512;50.102;19.958;2024-03-23T02:32:23;44.00;;;24.70;;
68509;SDS011;55512;50.102;19.958;2024-03-23T02:34:49;44.80;;;25.00;;
68509;SDS011;55512;50.102;19.958;2024-03-23T02:37:14;45.10;;;24.40;;
68509;SDS011;55512;50.102;19.958;2024-03-23T02:39:40;42.30;;;24.20;;
68509;SDS011;55512;50.102;19.958;2024-03-23T02:42:05;44.10;;;25.60;;
68509;SDS011;55512;50.102;19.958;2024-03-23T02:44:31;43.60;;;24.60;;
68509;SDS011;55512;50.102;19.958;2024-03-23T02:46:56;45.60;;;25.40;;
68509;SDS011;55512;50.102;19.958;2024-03-23T02:49:22;41.20;;;23.20;;
68509;SDS011;55512;50.102;19.958;2024-03-23T02:51:47;40.50;;;22.40;;
68509;SDS011;55512;50.102;19.958;2024-03-23T02:54:13;38.90;;;21.70;;
68509;SDS011;55512;50.102;19.958;2024-03-23T02:56:39;36.60;;;20.60;;
68509;SDS011;55512;50.102;19.958;2024-03-23T02:59:05;39.00;;;21.40;;
68509;SDS011;55512;50.102;19.958;2024-03-23T03:01:30;37.90;;;22.10;;
68509;SDS011;55512;50.102;19.958;2024-03-23T03:03:55;39.20;;;22.40;;
68509;SDS011;55512;50.102;19.958;2024-03-23T03:06:25;40.50;;;21.80;;
68509;SDS011;55512;50.102;19.958;2024-03-23T03:08:51;41.10;;;22.80;;
68509;SDS011;55512;50.102;19.958;2024-03-23T03:11:16;40.20;;;23.60;;
68509;SDS011;55512;50.102;19.958;2024-03-23T03:13:42;39.90;;;22.70;;
68509;SDS011;55512;50.102;19.958;2024-03-23T03:16:11;35.30;;;21.50;;
68509;SDS011;55512;50.102;19.958;2024-03-23T03:18:37;43.10;;;23.10;;
68509;SDS011;55512;50.102;19.958;2024-03-23T03:21:03;34.90;;;20.30;;
68509;SDS011;55512;50.102;19.958;2024-03-23T03:23:31;38.50;;;19.90;;
68509;SDS011;55512;50.102;19.958;2024-03-23T03:25:56;36.50;;;19.70;;
68509;SDS011;55512;50.102;19.958;2024-03-23T03:28:22;38.60;;;21.50;;
68509;SDS011;55512;50.102;19.958;2024-03-23T03:30:47;37.00;;;20.30;;
68509;SDS011;55512;50.102;19.958;2024-03-23T03:33:12;38.70;;;21.00;;
68509;SDS011;55512;50.102;19.958;2024-03-23T03:35:38;37.80;;;20.40;;
68509;SDS011;55512;50.102;19.958;2024-03-23T03:38:04;35.60;;;20.40;;
68509;SDS011;55512;50.102;19.958;2024-03-23T03:40:29;35.80;;;19.80;;
68509;SDS011;55512;50.102;19.958;2024-03-23T03:42:55;34.80;;;18.80;;
68509;SDS011;55512;50.102;19.958;2024-03-23T03:45:21;35.20;;;19.20;;
68509;SDS011;55512;50.102;19.958;2024-03-23T03:47:46;33.60;;;19.90;;
68509;SDS011;55512;50.102;19.958;2024-03-23T03:50:11;34.40;;;20.00;;
68509;SDS011;55512;50.102;19.958;2024-03-23T03:52:37;34.10;;;20.50;;
68509;SDS011;55512;50.102;19.958;2024-03-23T03:55:02;39.70;;;21.40;;
68509;SDS011;55512;50.102;19.958;2024-03-23T03:57:29;34.30;;;20.80;;
68509;SDS011;55512;50.102;19.958;2024-03-23T03:59:54;34.90;;;20.40;;
68509;SDS011;55512;50.102;19.958;2024-03-23T04:02:20;35.70;;;19.20;;
68509;SDS011;55512;50.102;19.958;2024-03-23T04:04:45;34.90;;;18.70;;
68509;SDS011;55512;50.102;19.958;2024-03-23T04:07:10;30.90;;;17.80;;
68509;SDS011;55512;50.102;19.958;2024-03-23T04:09:36;35.20;;;17.00;;
68509;SDS011;55512;50.102;19.958;2024-03-23T04:12:01;32.00;;;17.50;;
68509;SDS011;55512;50.102;19.958;2024-03-23T04:14:26;28.10;;;14.50;;
68509;SDS011;55512;50.102;19.958;2024-03-23T04:16:52;31.90;;;16.90;;
68509;SDS011;55512;50.102;19.958;2024-03-23T04:19:17;33.80;;;18.00;;
68509;SDS011;55512;50.102;19.958;2024-03-23T04:21:43;35.40;;;19.80;;
68509;SDS011;55512;50.102;19.958;2024-03-23T04:24:08;34.20;;;18.80;;
68509;SDS011;55512;50.102;19.958;2024-03-23T04:26:41;31.50;;;17.60;;
68509;SDS011;55512;50.102;19.958;2024-03-23T04:29:07;35.10;;;19.60;;
68509;SDS011;55512;50.102;19.958;2024-03-23T04:31:32;32.00;;;19.10;;
68509;SDS011;55512;50.102;19.958;2024-03-23T04:34:00;34.10;;;19.70;;
68509;SDS011;55512;50.102;19.958;2024-03-23T04:36:26;31.20;;;16.10;;
68509;SDS011;55512;50.102;19.958;2024-03-23T04:38:51;31.30;;;17.90;;
68509;SDS011;55512;50.102;19.958;2024-03-23T04:41:18;32.40;;;18.00;;
68509;SDS011;55512;50.102;19.958;2024-03-23T04:43:43;31.80;;;18.60;;
68509;SDS011;55512;50.102;19.958;2024-03-23T04:46:09;33.00;;;18.40;;
68509;SDS011;55512;50.102;19.958;2024-03-23T04:48:34;34.90;;;19.80;;
68509;SDS011;55512;50.102;19.958;2024-03-23T04:51:00;35.60;;;20.30;;
68509;SDS011;55512;50.102;19.958;2024-03-23T04:53:25;30.40;;;17.90;;
68509;SDS011;55512;50.102;19.958;2024-03-23T04:55:56;35.10;;;18.50;;
68509;SDS011;55512;50.102;19.958;2024-03-23T04:58:24;34.30;;;18.50;;
68509;SDS011;55512;50.102;19.958;2024-03-23T05:00:57;36.90;;;19.50;;
68509;SDS011;55512;50.102;19.958;2024-03-23T05:03:22;34.50;;;19.10;;
68509;SDS011;55512;50.102;19.958;2024-03-23T05:05:49;31.60;;;18.30;;
68509;SDS011;55512;50.102;19.958;2024-03-23T05:08:15;38.00;;;19.50;;
68509;SDS011;55512;50.102;19.958;2024-03-23T05:10:44;35.80;;;19.50;;
68509;SDS011;55512;50.102;19.958;2024-03-23T05:13:10;35.20;;;18.30;;
68509;SDS011;55512;50.102;19.958;2024-03-23T05:15:36;38.80;;;19.40;;
68509;SDS011;55512;50.102;19.958;2024-03-23T05:18:01;36.80;;;19.10;;
68509;SDS011;55512;50.102;19.958;2024-03-23T05:20:27;33.80;;;17.30;;
68509;SDS011;55512;50.102;19.958;2024-03-23T05:22:54;34.50;;;19.00;;
68509;SDS011;55512;50.102;19.958;2024-03-23T05:25:20;33.30;;;18.60;;
68509;SDS011;55512;50.102;19.958;2024-03-23T05:27:45;34.30;;;19.00;;
68509;SDS011;55512;50.102;19.958;2024-03-23T05:30:10;35.80;;;20.50;;
68509;SDS011;55512;50.102;19.958;2024-03-23T05:32:36;35.70;;;19.50;;
68509;SDS011;55512;50.102;19.958;2024-03-23T05:35:04;40.00;;;20.00;;
68509;SDS011;55512;50.102;19.958;2024-03-23T05:37:29;35.60;;;20.10;;
68509;SDS011;55512;50.102;19.958;2024-03-23T05:39:56;34.30;;;18.50;;
68509;SDS011;55512;50.102;19.958;2024-03-23T05:42:21;34.80;;;19.60;;
68509;SDS011;55512;50.102;19.958;2024-03-23T05:44:47;40.40;;;20.00;;
68509;SDS011;55512;50.102;19.958;2024-03-23T05:47:12;35.80;;;19.00;;
68509;SDS011;55512;50.102;19.958;2024-03-23T05:49:42;33.80;;;19.40;;
68509;SDS011;55512;50.102;19.958;2024-03-23T05:52:08;37.10;;;20.30;;
68509;SDS011;55512;50.102;19.958;2024-03-23T05:54:35;36.90;;;21.20;;
68509;SDS011;55512;50.102;19.958;2024-03-23T05:57:01;36.90;;;19.40;;
68509;SDS011;55512;50.102;19.958;2024-03-23T05:59:27;34.20;;;21.20;;
68509;SDS011;55512;50.102;19.958;2024-03-23T06:01:53;37.70;;;21.10;;
68509;SDS011;55512;50.102;19.958;2024-03-23T06:04:19;37.30;;;21.50;;
68509;SDS011;55512;50.102;19.958;2024-03-23T06:06:44;34.30;;;20.20;;
68509;SDS011;55512;50.102;19.958;2024-03-23T06:09:11;37.20;;;20.30;;
68509;SDS011;55512;50.102;19.958;2024-03-23T06:11:36;38.60;;;21.30;;
68509;SDS011;55512;50.102;19.958;2024-03-23T06:14:02;36.70;;;20.50;;
68509;SDS011;55512;50.102;19.958;2024-03-23T06:16:27;39.00;;;21.80;;
68509;SDS011;55512;50.102;19.958;2024-03-23T06:18:53;38.10;;;21.60;;
68509;SDS011;55512;50.102;19.958;2024-03-23T06:21:20;36.60;;;20.80;;
68509;SDS011;55512;50.102;19.958;2024-03-23T06:23:45;45.90;;;22.60;;
68509;SDS011;55512;50.102;19.958;2024-03-23T06:26:20;45.00;;;22.60;;
68509;SDS011;55512;50.102;19.958;2024-03-23T06:28:46;43.10;;;21.40;;
68509;SDS011;55512;50.102;19.958;2024-03-23T06:31:13;45.50;;;23.60;;
68509;SDS011;55512;50.102;19.958;2024-03-23T06:33:38;43.30;;;24.10;;
68509;SDS011;55512;50.102;19.958;2024-03-23T06:36:05;45.30;;;25.60;;
68509;SDS011;55512;50.102;19.958;2024-03-23T06:38:31;52.00;;;28.10;;
68509;SDS011;55512;50.102;19.958;2024-03-23T06:40:57;44.60;;;27.00;;
68509;SDS011;55512;50.102;19.958;2024-03-23T06:43:23;48.30;;;26.80;;
68509;SDS011;55512;50.102;19.958;2024-03-23T06:45:55;52.50;;;26.40;;
68509;SDS011;55512;50.102;19.958;2024-03-23T06:48:21;46.90;;;24.60;;
68509;SDS011;55512;50.102;19.958;2024-03-23T06:50:47;47.00;;;25.60;;
68509;SDS011;55512;50.102;19.958;2024-03-23T06:53:13;45.80;;;25.10;;
68509;SDS011;55512;50.102;19.958;2024-03-23T06:55:39;43.60;;;23.40;;
68509;SDS011;55512;50.102;19.958;2024-03-23T06:58:05;38.30;;;20.10;;
68509;SDS011;55512;50.102;19.958;2024-03-23T07:00:31;36.10;;;20.60;;
68509;SDS011;55512;50.102;19.958;2024-03-23T07:02:57;39.10;;;21.50;;
68509;SDS011;55512;50.102;19.958;2024-03-23T07:05:23;40.30;;;22.30;;
68509;SDS011;55512;50.102;19.958;2024-03-23T07:07:50;40.00;;;22.80;;
68509;SDS011;55512;50.102;19.958;2024-03-23T07:10:15;47.40;;;26.80;;
68509;SDS011;55512;50.102;19.958;2024-03-23T07:12:41;46.70;;;25.30;;
68509;SDS011;55512;50.102;19.958;2024-03-23T07:15:07;46.60;;;28.40;;
68509;SDS011;55512;50.102;19.958;2024-03-23T07:17:33;42.80;;;25.50;;
68509;SDS011;55512;50.102;19.958;2024-03-23T07:20:00;41.10;;;22.80;;
68509;SDS011;55512;50.102;19.958;2024-03-23T07:22:32;31.20;;;18.00;;
68509;SDS011;55512;50.102;19.958;2024-03-23T07:25:01;30.70;;;17.00;;
68509;SDS011;55512;50.102;19.958;2024-03-23T07:27:28;30.30;;;17.10;;
68509;SDS011;55512;50.102;19.958;2024-03-23T07:29:53;31.50;;;19.10;;
68509;SDS011;55512;50.102;19.958;2024-03-23T07:32:20;31.90;;;18.00;;
68509;SDS011;55512;50.102;19.958;2024-03-23T07:34:45;35.40;;;20.90;;
68509;SDS011;55512;50.102;19.958;2024-03-23T07:37:11;35.10;;;21.20;;
68509;SDS011;55512;50.102;19.958;2024-03-23T07:39:36;37.00;;;21.10;;
68509;SDS011;55512;50.102;19.958;2024-03-23T07:42:02;36.50;;;22.20;;
68509;SDS011;55512;50.102;19.958;2024-03-23T07:44:28;36.60;;;19.80;;
68509;SDS011;55512;50.102;19.958;2024-03-23T07:46:53;38.40;;;22.00;;
68509;SDS011;55512;50.102;19.958;2024-03-23T07:49:19;37.40;;;21.60;;
68509;SDS011;55512;50.102;19.958;2024-03-23T07:51:44;38.70;;;22.10;;
68509;SDS011;55512;50.102;19.958;2024-03-23T07:54:10;40.60;;;23.70;;
68509;SDS011;55512;50.102;19.958;2024-03-23T07:56:36;41.70;;;24.10;;
68509;SDS011;55512;50.102;19.958;2024-03-23T07:59:01;42.00;;;25.30;;
68509;SDS011;55512;50.102;19.958;2024-03-23T08:01:28;38.70;;;23.00;;
68509;SDS011;55512;50.102;19.958;2024-03-23T08:03:53;40.90;;;24.40;;
68509;SDS011;55512;50.102;19.958;2024-03-23T08:06:20;41.90;;;24.90;;
68509;SDS011;55512;50.102;19.958;2024-03-23T08:08:48;43.80;;;27.00;;
68509;SDS011;55512;50.102;19.958;2024-03-23T08:11:15;43.60;;;27.10;;
68509;SDS011;55512;50.102;19.958;2024-03-23T08:13:42;44.60;;;28.20;;
68509;SDS011;55512;50.102;19.958;2024-03-23T08:16:10;48.70;;;28.10;;
68509;SDS011;55512;50.102;19.958;2024-03-23T08:18:37;45.20;;;28.50;;
68509;SDS011;55512;50.102;19.958;2024-03-23T08:21:04;47.80;;;30.80;;
68509;SDS011;55512;50.102;19.958;2024-03-23T08:23:34;53.20;;;30.30;;
68509;SDS011;55512;50.102;19.958;2024-03-23T08:26:08;42.60;;;28.50;;
68509;SDS011;55512;50.102;19.958;2024-03-23T08:28:35;44.70;;;26.40;;
68509;SDS011;55512;50.102;19.958;2024-03-23T08:31:06;38.80;;;23.60;;
68509;SDS011;55512;50.102;19.958;2024-03-23T08:33:33;32.30;;;19.80;;
68509;SDS011;55512;50.102;19.958;2024-03-23T08:36:01;30.00;;;17.60;;
68509;SDS011;55512;50.102;19.958;2024-03-23T08:38:31;28.40;;;15.80;;
68509;SDS011;55512;50.102;19.958;2024-03-23T08:43:51;28.50;;;16.20;;
68509;SDS011;55512;50.102;19.958;2024-03-23T08:46:17;30.40;;;18.80;;
68509;SDS011;55512;50.102;19.958;2024-03-23T08:48:44;29.30;;;17.40;;
68509;SDS011;55512;50.102;19.958;2024-03-23T08:51:12;28.10;;;17.20;;
68509;SDS011;55512;50.102;19.958;2024-03-23T08:53:39;30.10;;;17.60;;
68509;SDS011;55512;50.102;19.958;2024-03-23T08:56:06;30.80;;;17.30;;
68509;SDS011;55512;50.102;19.958;2024-03-23T08:58:33;33.40;;;18.30;;
68509;SDS011;55512;50.102;19.958;2024-03-23T09:01:04;28.90;;;15.80;;
68509;SDS011;55512;50.102;19.958;2024-03-23T09:03:40;26.30;;;15.70;;
68509;SDS011;55512;50.102;19.958;2024-03-23T09:06:10;27.40;;;14.70;;
68509;SDS011;55512;50.102;19.958;2024-03-23T09:08:37;30.80;;;15.00;;
68509;SDS011;55512;50.102;19.958;2024-03-23T09:11:13;25.60;;;15.40;;
68509;SDS011;55512;50.102;19.958;2024-03-23T09:13:39;28.10;;;14.90;;
68509;SDS011;55512;50.102;19.958;2024-03-23T09:16:06;27.40;;;14.60;;
68509;SDS011;55512;50.102;19.958;2024-03-23T09:18:36;25.30;;;14.40;;
68509;SDS011;55512;50.102;19.958;2024-03-23T09:21:12;22.20;;;13.70;;
68509;SDS011;55512;50.102;19.958;2024-03-23T09:23:39;22.90;;;12.60;;
68509;SDS011;55512;50.102;19.958;2024-03-23T09:26:04;23.50;;;13.40;;
68509;SDS011;55512;50.102;19.958;2024-03-23T09:28:30;26.20;;;13.70;;
68509;SDS011;55512;50.102;19.958;2024-03-23T09:31:02;23.10;;;12.30;;
68509;SDS011;55512;50.102;19.958;2024-03-23T09:33:31;22.70;;;13.30;;
68509;SDS011;55512;50.102;19.958;2024-03-23T09:35:56;21.70;;;12.10;;
68509;SDS011;55512;50.102;19.958;2024-03-23T09:38:23;22.50;;;12.40;;
68509;SDS011;55512;50.102;19.958;2024-03-23T09:40:52;18.10;;;10.80;;
68509;SDS011;55512;50.102;19.958;2024-03-23T09:43:19;21.10;;;10.90;;
68509;SDS011;55512;50.102;19.958;2024-03-23T09:45:45;20.20;;;10.80;;
68509;SDS011;55512;50.102;19.958;2024-03-23T09:48:12;17.80;;;10.50;;
68509;SDS011;55512;50.102;19.958;2024-03-23T09:50:42;19.00;;;10.70;;
68509;SDS011;55512;50.102;19.958;2024-03-23T09:53:10;17.20;;;10.40;;
68509;SDS011;55512;50.102;19.958;2024-03-23T09:55:37;17.80;;;10.00;;
68509;SDS011;55512;50.102;19.958;2024-03-23T09:58:04;20.50;;;10.00;;
68509;SDS011;55512;50.102;19.958;2024-03-23T10:00:31;19.00;;;10.40;;
68509;SDS011;55512;50.102;19.958;2024-03-23T10:03:00;16.50;;;10.40;;
68509;SDS011;55512;50.102;19.958;2024-03-23T10:05:30;17.90;;;10.20;;
68509;SDS011;55512;50.102;19.958;2024-03-23T10:10:40;17.50;;;10.80;;
68509;SDS011;55512;50.102;19.958;2024-03-23T10:13:08;20.10;;;11.80;;
68509;SDS011;55512;50.102;19.958;2024-03-23T10:15:35;20.80;;;11.40;;
68509;SDS011;55512;50.102;19.958;2024-03-23T10:18:20;19.70;;;10.60;;
68509;SDS011;55512;50.102;19.958;2024-03-23T10:20:51;17.00;;;9.60;;
68509;SDS011;55512;50.102;19.958;2024-03-23T10:23:46;17.30;;;9.70;;
68509;SDS011;55512;50.102;19.958;2024-03-23T10:26:23;19.50;;;11.00;;
68509;SDS011;55512;50.102;19.958;2024-03-23T10:28:59;19.40;;;10.20;;
68509;SDS011;55512;50.102;19.958;2024-03-23T10:31:33;19.80;;;10.40;;
68509;SDS011;55512;50.102;19.958;2024-03-23T10:34:03;15.80;;;9.90;;
68509;SDS011;55512;50.102;19.958;2024-03-23T10:36:29;14.70;;;9.40;;
68509;SDS011;55512;50.102;19.958;2024-03-23T10:38:56;12.80;;;6.50;;
68509;SDS011;55512;50.102;19.958;2024-03-23T10:41:26;11.60;;;5.80;;
68509;SDS011;55512;50.102;19.958;2024-03-23T10:43:53;9.50;;;5.20;;
68509;SDS011;55512;50.102;19.958;2024-03-23T10:46:21;9.70;;;5.40;;
68509;SDS011;55512;50.102;19.958;2024-03-23T10:48:46;17.10;;;6.20;;
68509;SDS011;55512;50.102;19.958;2024-03-23T10:51:14;11.20;;;5.10;;
68509;SDS011;55512;50.102;19.958;2024-03-23T10:53:40;9.40;;;4.70;;
68509;SDS011;55512;50.102;19.958;2024-03-23T10:56:06;10.40;;;4.80;;
68509;SDS011;55512;50.102;19.958;2024-03-23T10:58:38;7.40;;;4.10;;
68509;SDS011;55512;50.102;19.958;2024-03-23T11:01:05;9.30;;;4.00;;
68509;SDS011;55512;50.102;19.958;2024-03-23T11:03:35;7.70;;;3.70;;
68509;SDS011;55512;50.102;19.958;2024-03-23T11:06:03;7.10;;;3.40;;
68509;SDS011;55512;50.102;19.958;2024-03-23T11:08:37;7.70;;;3.10;;
68509;SDS011;55512;50.102;19.958;2024-03-23T11:11:22;9.40;;;3.20;;
68509;SDS011;55512;50.102;19.958;2024-03-23T11:13:53;7.10;;;2.90;;
68509;SDS011;55512;50.102;19.958;2024-03-23T11:16:23;8.60;;;3.60;;
68509;SDS011;55512;50.102;19.958;2024-03-23T11:18:49;6.30;;;3.40;;
68509;SDS011;55512;50.102;19.958;2024-03-23T11:21:54;6.80;;;3.00;;
68509;SDS011;55512;50.102;19.958;2024-03-23T11:24:20;6.80;;;2.90;;
68509;SDS011;55512;50.102;19.958;2024-03-23T11:26:48;5.40;;;2.40;;
68509;SDS011;55512;50.102;19.958;2024-03-23T11:29:15;6.40;;;3.00;;
68509;SDS011;55512;50.102;19.958;2024-03-23T11:31:49;6.30;;;3.00;;
68509;SDS011;55512;50.102;19.958;2024-03-23T11:34:16;5.30;;;2.50;;
68509;SDS011;55512;50.102;19.958;2024-03-23T11:36:43;7.10;;;3.00;;
68509;SDS011;55512;50.102;19.958;2024-03-23T17:28:48;8.10;;;4.10;;
68509;SDS011;55512;50.102;19.958;2024-03-23T17:31:20;11.00;;;4.10;;
68509;SDS011;55512;50.102;19.958;2024-03-23T17:33:50;7.80;;;3.60;;
68509;SDS011;55512;50.102;19.958;2024-03-23T17:36:19;8.80;;;3.50;;
68509;SDS011;55512;50.102;19.958;2024-03-23T17:38:55;8.90;;;3.70;;
68509;SDS011;55512;50.102;19.958;2024-03-23T17:41:22;9.80;;;3.90;;
68509;SDS011;55512;50.102;19.958;2024-03-23T17:43:50;7.30;;;3.80;;
68509;SDS011;55512;50.102;19.958;2024-03-23T17:46:15;7.20;;;3.40;;
68509;SDS011;55512;50.102;19.958;2024-03-23T17:48:40;7.50;;;3.20;;
68509;SDS011;55512;50.102;19.958;2024-03-23T17:51:07;6.30;;;2.30;;
68509;SDS011;55512;50.102;19.958;2024-03-23T17:53:41;5.60;;;2.30;;
68509;SDS011;55512;50.102;19.958;2024-03-23T17:56:08;5.80;;;2.00;;
68509;SDS011;55512;50.102;19.958;2024-03-23T17:58:33;4.90;;;1.90;;
68509;SDS011;55512;50.102;19.958;2024-03-23T18:01:05;6.30;;;1.90;;
68509;SDS011;55512;50.102;19.958;2024-03-23T18:03:34;6.00;;;2.70;;
68509;SDS011;55512;50.102;19.958;2024-03-23T18:06:00;5.70;;;2.70;;
68509;SDS011;55512;50.102;19.958;2024-03-23T18:08:26;5.70;;;2.80;;
68509;SDS011;55512;50.102;19.958;2024-03-23T18:10:51;6.90;;;3.00;;
68509;SDS011;55512;50.102;19.958;2024-03-23T18:13:17;6.40;;;2.70;;
68509;SDS011;55512;50.102;19.958;2024-03-23T18:15:42;5.80;;;2.60;;
68509;SDS011;55512;50.102;19.958;2024-03-23T18:18:08;6.60;;;2.90;;
68509;SDS011;55512;50.102;19.958;2024-03-23T18:20:34;7.30;;;3.60;;
68509;SDS011;55512;50.102;19.958;2024-03-23T18:22:59;9.50;;;4.20;;
68509;SDS011;55512;50.102;19.958;2024-03-23T18:25:25;16.30;;;8.30;;
68509;SDS011;55512;50.102;19.958;2024-03-23T18:27:50;11.00;;;5.60;;
68509;SDS011;55512;50.102;19.958;2024-03-23T18:30:17;10.20;;;5.50;;
68509;SDS011;55512;50.102;19.958;2024-03-23T18:32:43;12.30;;;6.00;;
68509;SDS011;55512;50.102;19.958;2024-03-23T18:35:10;11.70;;;5.80;;
68509;SDS011;55512;50.102;19.958;2024-03-23T18:37:36;11.50;;;5.80;;
68509;SDS011;55512;50.102;19.958;2024-03-23T18:40:01;10.10;;;5.20;;
68509;SDS011;55512;50.102;19.958;2024-03-23T18:42:27;12.30;;;6.80;;
68509;SDS011;55512;50.102;19.958;2024-03-23T18:44:52;10.10;;;5.00;;
68509;SDS011;55512;50.102;19.958;2024-03-23T18:47:18;11.40;;;6.70;;
68509;SDS011;55512;50.102;19.958;2024-03-23T18:49:43;13.60;;;7.60;;
68509;SDS011;55512;50.102;19.958;2024-03-23T18:52:08;14.20;;;8.60;;
68509;SDS011;55512;50.102;19.958;2024-03-23T18:54:34;14.10;;;8.10;;
68509;SDS011;55512;50.102;19.958;2024-03-23T18:56:59;14.80;;;7.40;;
68509;SDS011;55512;50.102;19.958;2024-03-23T18:59:24;12.40;;;6.30;;
68509;SDS011;55512;50.102;19.958;2024-03-23T19:01:50;12.50;;;6.70;;
68509;SDS011;55512;50.102;19.958;2024-03-23T19:04:15;14.00;;;7.90;;
68509;SDS011;55512;50.102;19.958;2024-03-23T19:06:43;13.80;;;7.00;;
68509;SDS011;55512;50.102;19.958;2024-03-23T19:09:09;13.70;;;7.50;;
68509;SDS011;55512;50.102;19.958;2024-03-23T19:11:35;17.00;;;9.90;;
68509;SDS011;55512;50.102;19.958;2024-03-23T19:14:00;20.00;;;10.40;;
68509;SDS011;55512;50.102;19.958;2024-03-23T19:16:26;14.90;;;7.20;;
68509;SDS011;55512;50.102;19.958;2024-03-23T19:18:52;16.40;;;8.30;;
68509;SDS011;55512;50.102;19.958;2024-03-23T19:21:17;17.20;;;8.20;;
68509;SDS011;55512;50.102;19.958;2024-03-23T19:23:44;15.10;;;8.50;;
68509;SDS011;55512;50.102;19.958;2024-03-23T19:26:09;10.70;;;5.30;;
68509;SDS011;55512;50.102;19.958;2024-03-23T19:28:35;10.70;;;5.00;;
68509;SDS011;55512;50.102;19.958;2024-03-23T19:31:02;12.30;;;6.20;;
68509;SDS011;55512;50.102;19.958;2024-03-23T19:33:28;11.20;;;5.90;;
68509;SDS011;55512;50.102;19.958;2024-03-23T19:35:54;7.80;;;4.20;;
68509;SDS011;55512;50.102;19.958;2024-03-23T19:38:21;7.40;;;3.40;;
68509;SDS011;55512;50.102;19.958;2024-03-23T19:40:56;12.20;;;5.60;;
68509;SDS011;55512;50.102;19.958;2024-03-23T19:43:26;11.10;;;5.70;;
68509;SDS011;55512;50.102;19.958;2024-03-23T19:45:52;15.90;;;9.20;;
68509;SDS011;55512;50.102;19.958;2024-03-23T19:48:18;17.30;;;9.90;;
68509;SDS011;55512;50.102;19.958;2024-03-23T19:50:44;14.40;;;8.20;;
68509;SDS011;55512;50.102;19.958;2024-03-23T19:53:09;18.70;;;10.00;;
68509;SDS011;55512;50.102;19.958;2024-03-23T19:55:36;18.70;;;9.40;;
68509;SDS011;55512;50.102;19.958;2024-03-23T19:58:03;19.70;;;10.40;;
68509;SDS011;55512;50.102;19.958;2024-03-23T20:00:32;19.90;;;11.40;;
68509;SDS011;55512;50.102;19.958;2024-03-23T20:02:58;21.30;;;11.20;;
68509;SDS011;55512;50.102;19.958;2024-03-23T20:05:25;20.20;;;10.90;;
68509;SDS011;55512;50.102;19.958;2024-03-23T20:07:52;15.00;;;8.10;;
68509;SDS011;55512;50.102;19.958;2024-03-23T20:10:18;17.80;;;9.10;;
68509;SDS011;55512;50.102;19.958;2024-03-23T20:12:43;16.80;;;8.90;;
68509;SDS011;55512;50.102;19.958;2024-03-23T20:15:08;14.50;;;7.40;;
68509;SDS011;55512;50.102;19.958;2024-03-23T20:17:35;16.40;;;8.20;;
68509;SDS011;55512;50.102;19.958;2024-03-23T20:20:01;13.90;;;7.80;;
68509;SDS011;55512;50.102;19.958;2024-03-23T20:22:26;14.80;;;8.10;;
68509;SDS011;55512;50.102;19.958;2024-03-23T20:24:51;15.30;;;7.40;;
68509;SDS011;55512;50.102;19.958;2024-03-23T20:27:18;12.20;;;6.30;;
68509;SDS011;55512;50.102;19.958;2024-03-23T20:29:44;11.60;;;5.60;;
68509;SDS011;55512;50.102;19.958;2024-03-23T20:32:09;13.40;;;6.80;;
68509;SDS011;55512;50.102;19.958;2024-03-23T20:34:35;12.80;;;6.60;;
68509;SDS011;55512;50.102;19.958;2024-03-23T20:37:00;13.00;;;5.50;;
68509;SDS011;55512;50.102;19.958;2024-03-23T20:39:25;11.40;;;5.90;;
68509;SDS011;55512;50.102;19.958;2024-03-23T20:41:51;11.90;;;6.20;;
68509;SDS011;55512;50.102;19.958;2024-03-23T20:44:16;11.40;;;5.20;;
68509;SDS011;55512;50.102;19.958;2024-03-23T20:46:41;11.90;;;5.40;;
68509;SDS011;55512;50.102;19.958;2024-03-23T20:49:07;10.40;;;5.60;;
68509;SDS011;55512;50.102;19.958;2024-03-23T20:51:33;10.40;;;5.10;;
68509;SDS011;55512;50.102;19.958;2024-03-23T20:53:59;11.50;;;5.80;;
68509;SDS011;55512;50.102;19.958;2024-03-23T20:56:24;9.40;;;4.60;;
68509;SDS011;55512;50.102;19.958;2024-03-23T20:58:49;12.30;;;6.20;;